DAL1559 KLAX-KSFO
Flight info
| Callsign | DAL1559 |
|---|---|
| Flight time | 0h 55m |
| Altitude | 32000 |
| Route | SUMMR2 STOKD SERFR SERFR4 |
| Aircraft | A321/M-SDE3FGHIRWY/LB1 |
Departure
| Time | 2026-04-29 02:44 |
|---|---|
| Airport | Los Angeles International Airport (KLAX) |
Arrival
| Time | 2026-04-29 03:39 |
|---|---|
| Airport | San Francisco International Airport (KSFO) |
| Time | Latitude | Longitude | Altitude | Speed | Heading |
|---|---|---|---|---|---|
| 2026-04-29 02:12 | 33.94609 | -118.40483 | 92 ft | 0 kts | 97° |
| 2026-04-29 02:12 | 33.94608 | -118.40479 | 92 ft | 0 kts | 96° |
| 2026-04-29 02:33 | 33.94609 | -118.40487 | 93 ft | 4 kts | 96° |
| 2026-04-29 02:33 | 33.94612 | -118.40517 | 92 ft | 2 kts | 96° |
| 2026-04-29 02:34 | 33.94611 | -118.40539 | 91 ft | 4 kts | 35° |
| 2026-04-29 02:34 | 33.94590 | -118.40550 | 92 ft | 2 kts | 23° |
| 2026-04-29 02:34 | 33.94609 | -118.40553 | 92 ft | 4 kts | 342° |
| 2026-04-29 02:34 | 33.94634 | -118.40564 | 91 ft | 4 kts | 346° |
| 2026-04-29 02:35 | 33.94645 | -118.40565 | 94 ft | 0 kts | 353° |
| 2026-04-29 02:39 | 33.94654 | -118.40567 | 94 ft | 5 kts | 353° |
| 2026-04-29 02:39 | 33.94723 | -118.40577 | 94 ft | 12 kts | 353° |
| 2026-04-29 02:40 | 33.94801 | -118.40592 | 95 ft | 10 kts | 347° |
| 2026-04-29 02:40 | 33.94842 | -118.40602 | 96 ft | 2 kts | 358° |
| 2026-04-29 02:40 | 33.94856 | -118.40592 | 94 ft | 5 kts | 37° |
| 2026-04-29 02:40 | 33.94873 | -118.40499 | 96 ft | 18 kts | 82° |
| 2026-04-29 02:41 | 33.94894 | -118.40302 | 94 ft | 27 kts | 83° |
| 2026-04-29 02:41 | 33.94912 | -118.40086 | 93 ft | 22 kts | 88° |
| 2026-04-29 02:41 | 33.94938 | -118.39943 | 94 ft | 15 kts | 62° |
| 2026-04-29 02:41 | 33.94942 | -118.39937 | 93 ft | 0 kts | 55° |
| 2026-04-29 02:42 | 33.94965 | -118.39917 | 94 ft | 9 kts | 24° |
| 2026-04-29 02:42 | 33.95037 | -118.39961 | 94 ft | 18 kts | 283° |
| 2026-04-29 02:43 | 33.95015 | -118.40212 | 99 ft | 55 kts | 262° |
| 2026-04-29 02:43 | 33.94941 | -118.40925 | 97 ft | 114 kts | 262° |
| 2026-04-29 02:43 | 33.94820 | -118.42070 | 98 ft | 159 kts | 262° |
| 2026-04-29 02:43 | 33.94662 | -118.43458 | 507 ft | 166 kts | 263° |
| 2026-04-29 02:44 | 33.94524 | -118.44809 | 1164 ft | 161 kts | 263° |
| 2026-04-29 02:44 | 33.94398 | -118.46146 | 1723 ft | 161 kts | 264° |
| 2026-04-29 02:44 | 33.94307 | -118.47521 | 1994 ft | 172 kts | 269° |
| 2026-04-29 02:44 | 33.94260 | -118.49031 | 2138 ft | 188 kts | 269° |
| 2026-04-29 02:45 | 33.94218 | -118.50665 | 2272 ft | 202 kts | 269° |
| 2026-04-29 02:45 | 33.94124 | -118.52400 | 2395 ft | 212 kts | 266° |
| 2026-04-29 02:45 | 33.93988 | -118.54197 | 2523 ft | 226 kts | 265° |
| 2026-04-29 02:45 | 33.93831 | -118.56134 | 2646 ft | 241 kts | 265° |
| 2026-04-29 02:46 | 33.93661 | -118.58213 | 2846 ft | 255 kts | 265° |
| 2026-04-29 02:46 | 33.93487 | -118.60360 | 3253 ft | 260 kts | 265° |
| 2026-04-29 02:46 | 33.93311 | -118.62549 | 3662 ft | 265 kts | 264° |
| 2026-04-29 02:46 | 33.93131 | -118.64807 | 4112 ft | 269 kts | 264° |
| 2026-04-29 02:47 | 33.92956 | -118.67059 | 4549 ft | 272 kts | 264° |
| 2026-04-29 02:47 | 33.92783 | -118.69314 | 4956 ft | 276 kts | 264° |
| 2026-04-29 02:47 | 33.92608 | -118.71626 | 5370 ft | 280 kts | 264° |
| 2026-04-29 02:47 | 33.92428 | -118.73970 | 6109 ft | 282 kts | 264° |
| 2026-04-29 02:48 | 33.92239 | -118.76357 | 6878 ft | 283 kts | 263° |
| 2026-04-29 02:48 | 33.92052 | -118.78715 | 7689 ft | 281 kts | 264° |
| 2026-04-29 02:48 | 33.91868 | -118.81049 | 8524 ft | 279 kts | 264° |
| 2026-04-29 02:48 | 33.91709 | -118.83342 | 9306 ft | 280 kts | 268° |
| 2026-04-29 02:49 | 33.91766 | -118.85721 | 10079 ft | 280 kts | 271° |
| 2026-04-29 02:49 | 33.91840 | -118.88126 | 10380 ft | 298 kts | 271° |
| 2026-04-29 02:49 | 33.91916 | -118.90675 | 10511 ft | 319 kts | 271° |
| 2026-04-29 02:49 | 33.91995 | -118.93426 | 10937 ft | 328 kts | 271° |
| 2026-04-29 02:50 | 33.92076 | -118.96187 | 11578 ft | 331 kts | 271° |
| 2026-04-29 02:50 | 33.92172 | -118.98963 | 12255 ft | 333 kts | 274° |
| 2026-04-29 02:50 | 33.92624 | -119.01706 | 12922 ft | 337 kts | 286° |
| 2026-04-29 02:50 | 33.93585 | -119.04285 | 13578 ft | 342 kts | 298° |
| 2026-04-29 02:51 | 33.94831 | -119.06682 | 14223 ft | 344 kts | 299° |
| 2026-04-29 02:51 | 33.96103 | -119.09130 | 14797 ft | 346 kts | 298° |
| 2026-04-29 02:51 | 33.97376 | -119.11598 | 15389 ft | 348 kts | 298° |
| 2026-04-29 02:51 | 33.98653 | -119.14083 | 15981 ft | 350 kts | 298° |
| 2026-04-29 02:52 | 33.99943 | -119.16576 | 16558 ft | 352 kts | 300° |
| 2026-04-29 02:52 | 34.01517 | -119.18878 | 17098 ft | 360 kts | 311° |
| 2026-04-29 02:52 | 34.03486 | -119.20795 | 17694 ft | 367 kts | 319° |
| 2026-04-29 02:52 | 34.05589 | -119.22576 | 18240 ft | 370 kts | 319° |
| 2026-04-29 02:53 | 34.07695 | -119.24370 | 18720 ft | 372 kts | 319° |
| 2026-04-29 02:53 | 34.09811 | -119.26183 | 19180 ft | 373 kts | 319° |
| 2026-04-29 02:53 | 34.11929 | -119.28005 | 19676 ft | 375 kts | 319° |
| 2026-04-29 02:53 | 34.14053 | -119.29837 | 20172 ft | 375 kts | 319° |
| 2026-04-29 02:54 | 34.16177 | -119.31672 | 20660 ft | 376 kts | 319° |
| 2026-04-29 02:54 | 34.18306 | -119.33511 | 21162 ft | 377 kts | 318° |
| 2026-04-29 02:54 | 34.20443 | -119.35356 | 21648 ft | 378 kts | 318° |
| 2026-04-29 02:54 | 34.22554 | -119.37177 | 22209 ft | 377 kts | 318° |
| 2026-04-29 02:55 | 34.24692 | -119.39026 | 22718 ft | 378 kts | 318° |
| 2026-04-29 02:55 | 34.26828 | -119.40878 | 23196 ft | 379 kts | 318° |
| 2026-04-29 02:55 | 34.28977 | -119.42742 | 23653 ft | 380 kts | 318° |
| 2026-04-29 02:55 | 34.31132 | -119.44605 | 24017 ft | 381 kts | 317° |
| 2026-04-29 02:56 | 34.33294 | -119.46472 | 24376 ft | 383 kts | 317° |
| 2026-04-29 02:56 | 34.35472 | -119.48355 | 24716 ft | 385 kts | 317° |
| 2026-04-29 02:56 | 34.37653 | -119.50245 | 25059 ft | 387 kts | 317° |
| 2026-04-29 02:56 | 34.39843 | -119.52144 | 25419 ft | 388 kts | 317° |
| 2026-04-29 02:57 | 34.41915 | -119.54218 | 25700 ft | 385 kts | 309° |
| 2026-04-29 02:57 | 34.43798 | -119.56535 | 26001 ft | 387 kts | 309° |
| 2026-04-29 02:57 | 34.45689 | -119.58870 | 26337 ft | 389 kts | 309° |
| 2026-04-29 02:57 | 34.47592 | -119.61215 | 26685 ft | 391 kts | 309° |
| 2026-04-29 02:58 | 34.49505 | -119.63572 | 27036 ft | 393 kts | 309° |
| 2026-04-29 02:58 | 34.51404 | -119.65911 | 27365 ft | 395 kts | 309° |
| 2026-04-29 02:58 | 34.53339 | -119.68291 | 27697 ft | 397 kts | 309° |
| 2026-04-29 02:58 | 34.55284 | -119.70684 | 28019 ft | 399 kts | 308° |
| 2026-04-29 02:59 | 34.57236 | -119.73089 | 28340 ft | 401 kts | 308° |
| 2026-04-29 02:59 | 34.59195 | -119.75504 | 28666 ft | 402 kts | 308° |
| 2026-04-29 02:59 | 34.61165 | -119.77933 | 28955 ft | 405 kts | 308° |
| 2026-04-29 02:59 | 34.63143 | -119.80375 | 29261 ft | 406 kts | 308° |
| 2026-04-29 03:00 | 34.65129 | -119.82831 | 29521 ft | 408 kts | 308° |
| 2026-04-29 03:00 | 34.67125 | -119.85304 | 29782 ft | 410 kts | 309° |
| 2026-04-29 03:00 | 34.69130 | -119.87786 | 30052 ft | 413 kts | 309° |
| 2026-04-29 03:00 | 34.71143 | -119.90280 | 30310 ft | 414 kts | 309° |
| 2026-04-29 03:01 | 34.73168 | -119.92796 | 30529 ft | 416 kts | 310° |
| 2026-04-29 03:01 | 34.75195 | -119.95322 | 30678 ft | 420 kts | 311° |
| 2026-04-29 03:01 | 34.77244 | -119.97876 | 30796 ft | 423 kts | 311° |
| 2026-04-29 03:01 | 34.79315 | -120.00451 | 30956 ft | 427 kts | 311° |
| 2026-04-29 03:02 | 34.81396 | -120.03033 | 31202 ft | 428 kts | 311° |
| 2026-04-29 03:02 | 34.83484 | -120.05623 | 31497 ft | 428 kts | 311° |
| 2026-04-29 03:02 | 34.85561 | -120.08207 | 31830 ft | 427 kts | 310° |
| 2026-04-29 03:02 | 34.87635 | -120.10795 | 32066 ft | 427 kts | 310° |
| 2026-04-29 03:03 | 34.89679 | -120.13353 | 32093 ft | 415 kts | 310° |
| 2026-04-29 03:03 | 34.93691 | -120.18369 | 32117 ft | 413 kts | 312° |
| 2026-04-29 03:04 | 34.97680 | -120.23360 | 32117 ft | 414 kts | 312° |
| 2026-04-29 03:04 | 35.01693 | -120.28396 | 32119 ft | 414 kts | 312° |
| 2026-04-29 03:05 | 35.05705 | -120.33435 | 32123 ft | 414 kts | 312° |
| 2026-04-29 03:05 | 35.09735 | -120.38464 | 32130 ft | 414 kts | 314° |
| 2026-04-29 03:06 | 35.13950 | -120.43263 | 32096 ft | 415 kts | 317° |
| 2026-04-29 03:06 | 35.18268 | -120.47962 | 32105 ft | 416 kts | 317° |
| 2026-04-29 03:07 | 35.22567 | -120.52706 | 32110 ft | 416 kts | 316° |
| 2026-04-29 03:07 | 35.26805 | -120.57474 | 32127 ft | 417 kts | 316° |
| 2026-04-29 03:08 | 35.31065 | -120.62291 | 32123 ft | 417 kts | 316° |
| 2026-04-29 03:08 | 35.35329 | -120.67102 | 32121 ft | 417 kts | 317° |
| 2026-04-29 03:09 | 35.39594 | -120.71918 | 32117 ft | 417 kts | 317° |
| 2026-04-29 03:09 | 35.43857 | -120.76732 | 32139 ft | 416 kts | 317° |
| 2026-04-29 03:10 | 35.48119 | -120.81542 | 32137 ft | 415 kts | 319° |
| 2026-04-29 03:10 | 35.52703 | -120.85858 | 32135 ft | 415 kts | 322° |
| 2026-04-29 03:11 | 35.57314 | -120.90132 | 32156 ft | 415 kts | 322° |
| 2026-04-29 03:11 | 35.61915 | -120.94401 | 32135 ft | 413 kts | 323° |
| 2026-04-29 03:12 | 35.66490 | -120.98662 | 32102 ft | 413 kts | 322° |
| 2026-04-29 03:12 | 35.70298 | -121.02215 | 32093 ft | 413 kts | 322° |
| 2026-04-29 03:13 | 35.74894 | -121.06492 | 32114 ft | 414 kts | 323° |
| 2026-04-29 03:13 | 35.79479 | -121.10772 | 32125 ft | 414 kts | 323° |
| 2026-04-29 03:14 | 35.84063 | -121.15060 | 32123 ft | 413 kts | 323° |
| 2026-04-29 03:14 | 35.88636 | -121.19348 | 32128 ft | 413 kts | 323° |
| 2026-04-29 03:15 | 35.93197 | -121.23634 | 32151 ft | 412 kts | 323° |
| 2026-04-29 03:15 | 35.97755 | -121.27919 | 32115 ft | 411 kts | 323° |
| 2026-04-29 03:16 | 36.02286 | -121.32171 | 32125 ft | 412 kts | 323° |
| 2026-04-29 03:16 | 36.06846 | -121.36450 | 32121 ft | 412 kts | 326° |
| 2026-04-29 03:17 | 36.11717 | -121.40273 | 31086 ft | 421 kts | 328° |
| 2026-04-29 03:17 | 36.14206 | -121.42211 | 30300 ft | 424 kts | 329° |
| 2026-04-29 03:17 | 36.16690 | -121.44150 | 29730 ft | 420 kts | 328° |
| 2026-04-29 03:17 | 36.19138 | -121.46062 | 29231 ft | 414 kts | 328° |
| 2026-04-29 03:18 | 36.21560 | -121.47953 | 28735 ft | 409 kts | 328° |
| 2026-04-29 03:18 | 36.23953 | -121.49816 | 28245 ft | 404 kts | 328° |
| 2026-04-29 03:18 | 36.26309 | -121.51656 | 27764 ft | 399 kts | 328° |
| 2026-04-29 03:18 | 36.28638 | -121.53481 | 27293 ft | 393 kts | 328° |
| 2026-04-29 03:19 | 36.30936 | -121.55287 | 26843 ft | 388 kts | 327° |
| 2026-04-29 03:19 | 36.33196 | -121.57068 | 26393 ft | 383 kts | 327° |
| 2026-04-29 03:19 | 36.35431 | -121.58825 | 25960 ft | 378 kts | 327° |
| 2026-04-29 03:19 | 36.37645 | -121.60559 | 25531 ft | 374 kts | 327° |
| 2026-04-29 03:20 | 36.39833 | -121.62269 | 25110 ft | 369 kts | 327° |
| 2026-04-29 03:20 | 36.41987 | -121.63961 | 24725 ft | 364 kts | 327° |
| 2026-04-29 03:20 | 36.44116 | -121.65637 | 24301 ft | 360 kts | 327° |
| 2026-04-29 03:20 | 36.46218 | -121.67296 | 23902 ft | 356 kts | 326° |
| 2026-04-29 03:21 | 36.48300 | -121.68937 | 23456 ft | 352 kts | 326° |
| 2026-04-29 03:21 | 36.50356 | -121.70559 | 23020 ft | 348 kts | 326° |
| 2026-04-29 03:21 | 36.52388 | -121.72167 | 22592 ft | 344 kts | 326° |
| 2026-04-29 03:21 | 36.54400 | -121.73758 | 22162 ft | 341 kts | 326° |
| 2026-04-29 03:22 | 36.56388 | -121.75331 | 21747 ft | 337 kts | 326° |
| 2026-04-29 03:22 | 36.58362 | -121.76893 | 21320 ft | 335 kts | 326° |
| 2026-04-29 03:22 | 36.60294 | -121.78425 | 20908 ft | 332 kts | 326° |
| 2026-04-29 03:22 | 36.62236 | -121.79966 | 20460 ft | 330 kts | 326° |
| 2026-04-29 03:23 | 36.64173 | -121.81500 | 20032 ft | 328 kts | 326° |
| 2026-04-29 03:23 | 36.66096 | -121.83020 | 19613 ft | 327 kts | 326° |
| 2026-04-29 03:23 | 36.68011 | -121.84536 | 19194 ft | 325 kts | 326° |
| 2026-04-29 03:23 | 36.69912 | -121.86044 | 18772 ft | 324 kts | 326° |
| 2026-04-29 03:24 | 36.71812 | -121.87552 | 18333 ft | 323 kts | 326° |
| 2026-04-29 03:24 | 36.73762 | -121.88964 | 17789 ft | 326 kts | 334° |
| 2026-04-29 03:24 | 36.75899 | -121.89910 | 17348 ft | 325 kts | 345° |
| 2026-04-29 03:24 | 36.78102 | -121.90521 | 16928 ft | 323 kts | 346° |
| 2026-04-29 03:25 | 36.80292 | -121.91128 | 16516 ft | 321 kts | 346° |
| 2026-04-29 03:25 | 36.82463 | -121.91734 | 16122 ft | 319 kts | 346° |
| 2026-04-29 03:25 | 36.84621 | -121.92338 | 15711 ft | 317 kts | 346° |
| 2026-04-29 03:25 | 36.86767 | -121.92939 | 15314 ft | 315 kts | 346° |
| 2026-04-29 03:26 | 36.88899 | -121.93537 | 14917 ft | 313 kts | 347° |
| 2026-04-29 03:26 | 36.91022 | -121.94132 | 14532 ft | 312 kts | 347° |
| 2026-04-29 03:26 | 36.93137 | -121.94723 | 14130 ft | 310 kts | 347° |
| 2026-04-29 03:26 | 36.95211 | -121.95307 | 13720 ft | 309 kts | 346° |
| 2026-04-29 03:27 | 36.97281 | -121.96004 | 13325 ft | 307 kts | 343° |
| 2026-04-29 03:27 | 36.99340 | -121.96796 | 12921 ft | 304 kts | 342° |
| 2026-04-29 03:27 | 37.01348 | -121.97610 | 12534 ft | 302 kts | 342° |
| 2026-04-29 03:27 | 37.03313 | -121.98413 | 12156 ft | 300 kts | 342° |
| 2026-04-29 03:28 | 37.05293 | -121.99213 | 11769 ft | 298 kts | 342° |
| 2026-04-29 03:28 | 37.07265 | -122.00000 | 11378 ft | 297 kts | 343° |
| 2026-04-29 03:28 | 37.09232 | -122.00777 | 10998 ft | 295 kts | 343° |
| 2026-04-29 03:28 | 37.11187 | -122.01548 | 10617 ft | 294 kts | 343° |
| 2026-04-29 03:29 | 37.13134 | -122.02312 | 10266 ft | 292 kts | 343° |
| 2026-04-29 03:29 | 37.15046 | -122.03061 | 10032 ft | 285 kts | 343° |
| 2026-04-29 03:29 | 37.16923 | -122.03796 | 9870 ft | 281 kts | 343° |
| 2026-04-29 03:29 | 37.18781 | -122.04523 | 9724 ft | 277 kts | 343° |
| 2026-04-29 03:30 | 37.20598 | -122.05233 | 9425 ft | 272 kts | 343° |
| 2026-04-29 03:30 | 37.22396 | -122.05938 | 9064 ft | 270 kts | 343° |
| 2026-04-29 03:30 | 37.24183 | -122.06639 | 8698 ft | 268 kts | 343° |
| 2026-04-29 03:30 | 37.25957 | -122.07332 | 8345 ft | 266 kts | 344° |
| 2026-04-29 03:31 | 37.29470 | -122.08708 | 7641 ft | 264 kts | 344° |
| 2026-04-29 03:31 | 37.31219 | -122.09396 | 7287 ft | 263 kts | 344° |
| 2026-04-29 03:31 | 37.32961 | -122.10082 | 6936 ft | 263 kts | 344° |
| 2026-04-29 03:32 | 37.34685 | -122.10761 | 6587 ft | 262 kts | 345° |
| 2026-04-29 03:32 | 37.36422 | -122.11447 | 6216 ft | 260 kts | 344° |
| 2026-04-29 03:32 | 37.38145 | -122.12120 | 5873 ft | 258 kts | 345° |
| 2026-04-29 03:32 | 37.39866 | -122.12736 | 5554 ft | 256 kts | 346° |
| 2026-04-29 03:33 | 37.41573 | -122.13317 | 5248 ft | 253 kts | 347° |
| 2026-04-29 03:33 | 37.43264 | -122.13885 | 4939 ft | 250 kts | 346° |
| 2026-04-29 03:33 | 37.44934 | -122.14448 | 4627 ft | 247 kts | 346° |
| 2026-04-29 03:33 | 37.46585 | -122.15009 | 4326 ft | 244 kts | 346° |
| 2026-04-29 03:34 | 37.48218 | -122.15569 | 4015 ft | 242 kts | 346° |
| 2026-04-29 03:34 | 37.49838 | -122.16124 | 3736 ft | 240 kts | 346° |
| 2026-04-29 03:34 | 37.51437 | -122.16673 | 3469 ft | 234 kts | 345° |
| 2026-04-29 03:34 | 37.52929 | -122.17408 | 3146 ft | 229 kts | 327° |
| 2026-04-29 03:35 | 37.54015 | -122.18818 | 2861 ft | 223 kts | 302° |
| 2026-04-29 03:35 | 37.54748 | -122.20511 | 2597 ft | 217 kts | 297° |
| 2026-04-29 03:35 | 37.55431 | -122.22180 | 2331 ft | 212 kts | 297° |
| 2026-04-29 03:35 | 37.56100 | -122.23780 | 2087 ft | 199 kts | 297° |
| 2026-04-29 03:36 | 37.56728 | -122.25274 | 1833 ft | 187 kts | 297° |
| 2026-04-29 03:36 | 37.57320 | -122.26679 | 1614 ft | 174 kts | 297° |
| 2026-04-29 03:36 | 37.57868 | -122.27979 | 1373 ft | 162 kts | 297° |
| 2026-04-29 03:36 | 37.58380 | -122.29193 | 1176 ft | 150 kts | 297° |
| 2026-04-29 03:37 | 37.58855 | -122.30322 | 987 ft | 143 kts | 297° |
| 2026-04-29 03:37 | 37.59312 | -122.31410 | 813 ft | 139 kts | 297° |
| 2026-04-29 03:37 | 37.59758 | -122.32470 | 638 ft | 136 kts | 297° |
| 2026-04-29 03:37 | 37.60198 | -122.33517 | 466 ft | 135 kts | 296° |
| 2026-04-29 03:38 | 37.60634 | -122.34557 | 301 ft | 133 kts | 296° |
| 2026-04-29 03:38 | 37.61060 | -122.35585 | 142 ft | 132 kts | 297° |
| 2026-04-29 03:38 | 37.61487 | -122.36582 | 39 ft | 119 kts | 297° |
| 2026-04-29 03:38 | 37.61820 | -122.37386 | 17 ft | 79 kts | 297° |
| 2026-04-29 03:39 | 37.61991 | -122.37796 | 23 ft | 26 kts | 295° |
| 2026-04-29 03:39 | 37.61969 | -122.37927 | 23 ft | 9 kts | 231° |
| 2026-04-29 03:39 | 37.61960 | -122.37939 | 22 ft | 1 kts | 229° |
| 2026-04-29 03:39 | 37.61959 | -122.37941 | 22 ft | 0 kts | 229° |
| 2026-04-29 03:40 | 37.61955 | -122.37947 | 22 ft | 4 kts | 229° |
| 2026-04-29 03:40 | 37.61932 | -122.37956 | 22 ft | 3 kts | 171° |
| 2026-04-29 03:40 | 37.61885 | -122.37922 | 21 ft | 13 kts | 149° |
| 2026-04-29 03:41 | 37.61824 | -122.37848 | 19 ft | 14 kts | 117° |
| 2026-04-29 03:41 | 37.61789 | -122.37736 | 18 ft | 15 kts | 111° |
| 2026-04-29 03:41 | 37.61750 | -122.37609 | 20 ft | 12 kts | 110° |
| 2026-04-29 03:41 | 37.61728 | -122.37538 | 20 ft | 0 kts | 112° |
| 2026-04-29 03:42 | 37.61714 | -122.37499 | 20 ft | 11 kts | 115° |
| 2026-04-29 03:42 | 37.61621 | -122.37458 | 21 ft | 20 kts | 189° |
| 2026-04-29 03:42 | 37.61494 | -122.37535 | 21 ft | 17 kts | 210° |
| 2026-04-29 03:42 | 37.61451 | -122.37564 | 22 ft | 0 kts | 207° |
| 2026-04-29 03:43 | 37.61450 | -122.37564 | 22 ft | 2 kts | 207° |
| 2026-04-29 03:43 | 37.61403 | -122.37596 | 21 ft | 15 kts | 209° |
| 2026-04-29 03:43 | 37.61310 | -122.37700 | 18 ft | 16 kts | 239° |
| 2026-04-29 03:44 | 37.61299 | -122.37819 | 17 ft | 14 kts | 281° |
| 2026-04-29 03:44 | 37.61343 | -122.37934 | 16 ft | 15 kts | 298° |
| 2026-04-29 03:44 | 37.61390 | -122.38049 | 16 ft | 14 kts | 296° |
| 2026-04-29 03:44 | 37.61424 | -122.38097 | 16 ft | 7 kts | 336° |
| 2026-04-29 03:45 | 37.61498 | -122.38079 | 15 ft | 11 kts | 9° |
| 2026-04-29 03:45 | 37.61560 | -122.38141 | 14 ft | 12 kts | 300° |
| 2026-04-29 03:45 | 37.61596 | -122.38226 | 15 ft | 11 kts | 298° |
| 2026-04-29 03:45 | 37.61600 | -122.38285 | 15 ft | 6 kts | 248° |
| 2026-04-29 03:46 | 37.61598 | -122.38288 | 15 ft | 0 kts | 236° |
| 2026-04-29 03:46 | 37.61594 | -122.38294 | 16 ft | 1 kts | 233° |
| 2026-04-29 03:46 | 37.61587 | -122.38303 | 15 ft | 0 kts | 229° |
| 2026-04-29 03:47 | 37.61579 | -122.38315 | 17 ft | 0 kts | 225° |
| 2026-04-29 03:47 | 37.61578 | -122.38315 | 16 ft | 0 kts | 224° |
| 2026-04-29 03:47 | 37.61578 | -122.38316 | 16 ft | 0 kts | 225° |